Time;durP1;ratioP1;P1;durP2;ratioP2;P2;SDS_P1;SDS_P2;PMS_P1;PMS_P2;Temp;Humidity;BMP_temperature;BMP_pressure;BME280_temperature;BME280_humidity;BME280_pressure;Samples;Min_cycle;Max_cycle;Signal;HPM_P1;HPM_P2
2023/05/12 00:00:16;;;;;;;1.60;1.50;;;;;;;;;;5046001;28;20041;-71
2023/05/12 00:02:43;;;;;;;3.15;2.85;;;;;;;;;;5024162;28;20349;-71
2023/05/12 00:05:09;;;;;;;2.58;2.30;;;;;;;;;;5045755;28;20060;-71
2023/05/12 00:07:35;;;;;;;2.60;2.40;;;;;;;;;;5028380;28;20045;-71
2023/05/12 00:10:01;;;;;;;2.28;2.08;;;;;;;;;;5027268;28;20060;-71
2023/05/12 00:12:27;;;;;;;2.55;2.30;;;;;;;;;;5027953;28;20048;-71
2023/05/12 00:14:53;;;;;;;3.70;3.00;;;;;;;;;;5045578;28;20156;-71
2023/05/12 00:17:19;;;;;;;2.72;2.20;;;;;;;;;;5045639;28;20298;-70
2023/05/12 00:19:47;;;;;;;2.88;2.33;;;;;;;;;;5028065;28;20045;-71
2023/05/12 00:22:14;;;;;;;3.50;3.20;;;;;;;;;;5046077;28;20478;-71
2023/05/12 00:24:40;;;;;;;3.67;3.38;;;;;;;;;;5045045;28;20107;-71
2023/05/12 00:27:06;;;;;;;4.18;3.85;;;;;;;;;;5025949;28;20056;-71
2023/05/12 00:29:33;;;;;;;4.70;3.90;;;;;;;;;;5045373;28;20053;-71
2023/05/12 00:31:59;;;;;;;3.50;3.20;;;;;;;;;;5025587;28;21679;-71
2023/05/12 00:34:26;;;;;;;3.78;3.47;;;;;;;;;;5045350;28;20045;-71
2023/05/12 00:36:53;;;;;;;4.35;3.00;;;;;;;;;;5046029;28;20053;-71
2023/05/12 00:39:19;;;;;;;3.55;3.25;;;;;;;;;;5027193;28;20055;-71
2023/05/12 00:41:46;;;;;;;3.30;2.85;;;;;;;;;;5027297;28;20075;-70
2023/05/12 00:44:12;;;;;;;3.60;3.08;;;;;;;;;;5027781;28;20416;-71
2023/05/12 00:46:39;;;;;;;3.70;3.30;;;;;;;;;;5026895;28;20048;-71
2023/05/12 00:49:05;;;;;;;2.83;2.63;;;;;;;;;;5023451;28;20759;-70
2023/05/12 00:51:31;;;;;;;2.67;2.47;;;;;;;;;;5023870;28;20045;-71
2023/05/12 00:53:57;;;;;;;2.50;2.30;;;;;;;;;;5024387;28;20041;-71
2023/05/12 00:56:24;;;;;;;2.35;2.15;;;;;;;;;;5024506;28;20103;-71
2023/05/12 00:58:50;;;;;;;2.40;2.20;;;;;;;;;;5021516;28;20103;-71
2023/05/12 01:01:16;;;;;;;3.22;2.40;;;;;;;;;;5025728;28;20677;-71
2023/05/12 01:03:43;;;;;;;2.40;2.20;;;;;;;;;;5025769;28;20242;-71
2023/05/12 01:06:11;;;;;;;3.67;3.30;;;;;;;;;;5018948;28;20053;-71
2023/05/12 01:08:38;;;;;;;3.40;2.92;;;;;;;;;;5023861;28;20083;-71
2023/05/12 01:11:04;;;;;;;2.75;2.55;;;;;;;;;;5022386;28;20056;-70
2023/05/12 01:13:30;;;;;;;4.63;3.10;;;;;;;;;;5022709;28;20046;-71
2023/05/12 01:15:59;;;;;;;3.33;2.80;;;;;;;;;;5023278;28;20049;-70
2023/05/12 01:18:26;;;;;;;3.08;2.83;;;;;;;;;;5024686;28;20076;-71
2023/05/12 01:20:53;;;;;;;4.35;3.95;;;;;;;;;;5022815;28;20072;-70
2023/05/12 01:23:19;;;;;;;5.57;4.97;;;;;;;;;;5024783;28;20123;-70
2023/05/12 01:25:46;;;;;;;4.43;3.80;;;;;;;;;;5024836;28;20140;-71
2023/05/12 01:28:12;;;;;;;4.35;4.05;;;;;;;;;;5023046;28;20068;-70
2023/05/12 01:30:40;;;;;;;4.40;4.00;;;;;;;;;;5023479;28;20045;-71
2023/05/12 01:33:07;;;;;;;4.13;3.72;;;;;;;;;;5024279;28;20258;-71
2023/05/12 01:35:33;;;;;;;4.82;3.83;;;;;;;;;;5023922;28;20480;-71
2023/05/12 01:37:59;;;;;;;7.43;4.65;;;;;;;;;;5026035;28;20435;-71
2023/05/12 01:40:25;;;;;;;5.10;4.60;;;;;;;;;;5023193;28;20084;-71
2023/05/12 01:42:51;;;;;;;4.70;4.30;;;;;;;;;;5023626;28;20065;-71
2023/05/12 01:45:17;;;;;;;4.72;3.97;;;;;;;;;;5021103;28;20596;-71
2023/05/12 01:47:43;;;;;;;4.32;3.92;;;;;;;;;;5025602;28;20511;-71
2023/05/12 01:50:10;;;;;;;3.42;3.13;;;;;;;;;;5024812;28;20304;-71
2023/05/12 01:52:36;;;;;;;4.80;3.78;;;;;;;;;;5026166;28;20037;-71
2023/05/12 01:55:02;;;;;;;3.45;2.83;;;;;;;;;;5043290;28;20398;-71
2023/05/12 01:57:28;;;;;;;5.15;3.78;;;;;;;;;;5044808;28;20064;-71
2023/05/12 01:59:54;;;;;;;3.40;3.10;;;;;;;;;;5043449;28;20033;-71
2023/05/12 02:02:20;;;;;;;4.32;3.85;;;;;;;;;;5043186;28;20063;-71
2023/05/12 02:04:46;;;;;;;4.15;3.10;;;;;;;;;;5043511;28;20048;-71
2023/05/12 02:07:14;;;;;;;4.65;4.25;;;;;;;;;;5043931;28;20508;-71
2023/05/12 02:09:40;;;;;;;7.22;5.82;;;;;;;;;;5024536;28;20407;-71
2023/05/12 02:12:06;;;;;;;5.05;4.60;;;;;;;;;;5025475;28;20059;-71
2023/05/12 02:14:33;;;;;;;4.57;4.18;;;;;;;;;;5043504;28;20045;-71
2023/05/12 02:16:59;;;;;;;6.97;4.72;;;;;;;;;;5042419;28;20103;-71
2023/05/12 02:19:25;;;;;;;6.53;5.90;;;;;;;;;;5025589;28;20049;-71
2023/05/12 02:21:51;;;;;;;8.93;6.75;;;;;;;;;;5042635;28;20134;-71
2023/05/12 02:24:17;;;;;;;5.78;5.03;;;;;;;;;;5042054;28;20045;-71
2023/05/12 02:26:43;;;;;;;7.22;5.95;;;;;;;;;;5043400;28;20132;-71
2023/05/12 02:29:10;;;;;;;6.40;5.68;;;;;;;;;;5024444;28;20072;-71
2023/05/12 02:31:36;;;;;;;7.20;5.47;;;;;;;;;;5024993;28;20041;-71
2023/05/12 02:34:02;;;;;;;6.07;5.07;;;;;;;;;;5025281;28;20052;-71
2023/05/12 02:36:28;;;;;;;7.32;5.85;;;;;;;;;;5043752;28;20048;-71
2023/05/12 02:38:54;;;;;;;6.43;5.72;;;;;;;;;;5024653;28;20517;-71
2023/05/12 02:41:21;;;;;;;5.80;5.15;;;;;;;;;;5043388;28;20059;-71
2023/05/12 02:43:47;;;;;;;7.20;6.50;;;;;;;;;;5043108;28;20530;-71
2023/05/12 02:46:13;;;;;;;7.47;6.22;;;;;;;;;;5042370;28;20056;-71
2023/05/12 02:48:39;;;;;;;5.75;5.15;;;;;;;;;;5024936;28;20045;-71
2023/05/12 02:51:05;;;;;;;5.40;4.82;;;;;;;;;;5026582;28;20052;-71
2023/05/12 02:53:31;;;;;;;6.30;5.70;;;;;;;;;;5025317;28;20045;-70
2023/05/12 02:55:57;;;;;;;5.93;5.13;;;;;;;;;;5023625;28;20053;-71
2023/05/12 02:58:23;;;;;;;5.35;4.85;;;;;;;;;;5025217;28;20037;-71
2023/05/12 03:00:49;;;;;;;5.60;5.03;;;;;;;;;;5042872;28;20045;-71
2023/05/12 03:03:15;;;;;;;6.13;5.20;;;;;;;;;;5043119;28;20048;-71
2023/05/12 03:05:41;;;;;;;6.07;5.47;;;;;;;;;;5024543;28;20048;-71
2023/05/12 03:08:07;;;;;;;5.43;4.55;;;;;;;;;;5042862;28;20037;-71
2023/05/12 03:10:33;;;;;;;5.32;4.07;;;;;;;;;;5043053;28;20041;-71
2023/05/12 03:12:59;;;;;;;5.85;4.85;;;;;;;;;;5024365;28;20052;-71
2023/05/12 03:15:25;;;;;;;4.57;3.78;;;;;;;;;;5043135;28;20390;-71
2023/05/12 03:17:51;;;;;;;3.75;3.25;;;;;;;;;;5026153;28;20490;-71
2023/05/12 03:20:17;;;;;;;3.83;3.03;;;;;;;;;;5024581;28;20053;-71
2023/05/12 03:22:43;;;;;;;2.83;2.30;;;;;;;;;;5043418;28;20120;-71
2023/05/12 03:25:09;;;;;;;3.42;3.03;;;;;;;;;;5042735;28;20040;-71
2023/05/12 03:27:35;;;;;;;3.22;2.92;;;;;;;;;;5025086;28;20052;-71
2023/05/12 03:30:03;;;;;;;3.75;2.65;;;;;;;;;;5042523;28;20056;-71
2023/05/12 03:32:30;;;;;;;3.08;2.78;;;;;;;;;;5041826;28;20471;-71
2023/05/12 03:34:56;;;;;;;3.75;2.60;;;;;;;;;;5041149;28;20094;-71
2023/05/12 03:37:22;;;;;;;3.53;2.90;;;;;;;;;;5044269;28;20163;-71
2023/05/12 03:39:48;;;;;;;3.08;2.80;;;;;;;;;;5046633;28;20041;-71
2023/05/12 03:42:14;;;;;;;2.92;2.70;;;;;;;;;;5045893;28;20568;-71
2023/05/12 03:44:40;;;;;;;3.17;2.70;;;;;;;;;;5045186;28;20403;-71
2023/05/12 03:47:06;;;;;;;3.35;2.47;;;;;;;;;;5028680;28;20540;-71
2023/05/12 03:49:32;;;;;;;4.05;2.72;;;;;;;;;;5045255;28;20052;-71
2023/05/12 03:51:58;;;;;;;3.00;2.70;;;;;;;;;;5028296;28;20041;-71
2023/05/12 03:54:24;;;;;;;3.50;3.17;;;;;;;;;;5045996;28;20511;-71
2023/05/12 03:56:52;;;;;;;2.45;2.25;;;;;;;;;;5045585;28;20048;-71
2023/05/12 03:59:18;;;;;;;3.22;1.92;;;;;;;;;;5046427;28;20052;-71
2023/05/12 04:01:44;;;;;;;3.33;2.30;;;;;;;;;;5046742;28;20521;-71
2023/05/12 04:04:10;;;;;;;2.10;1.88;;;;;;;;;;5046398;28;20475;-71
2023/05/12 04:06:36;;;;;;;2.70;2.30;;;;;;;;;;5028061;28;20602;-71
2023/05/12 04:09:02;;;;;;;2.38;1.90;;;;;;;;;;5027028;28;20049;-71
2023/05/12 04:11:29;;;;;;;2.65;1.65;;;;;;;;;;5029168;28;20129;-71
2023/05/12 04:13:55;;;;;;;2.75;1.90;;;;;;;;;;5027437;28;20029;-71
2023/05/12 04:16:21;;;;;;;3.42;2.17;;;;;;;;;;5027551;28;20475;-71
2023/05/12 04:18:48;;;;;;;2.47;2.13;;;;;;;;;;5045946;28;20041;-71
2023/05/12 04:21:14;;;;;;;3.08;2.05;;;;;;;;;;5027153;28;20123;-71
2023/05/12 04:23:40;;;;;;;2.42;2.22;;;;;;;;;;5027356;28;20048;-71
2023/05/12 04:26:06;;;;;;;3.03;1.92;;;;;;;;;;5045028;28;20601;-71
2023/05/12 04:28:32;;;;;;;2.97;2.67;;;;;;;;;;5027516;28;20041;-71
2023/05/12 04:31:02;;;;;;;3.15;2.80;;;;;;;;;;5026638;28;20049;-71
2023/05/12 04:33:28;;;;;;;3.03;2.65;;;;;;;;;;5028116;28;20737;-71
2023/05/12 04:35:55;;;;;;;3.33;2.88;;;;;;;;;;5026645;28;20195;-71
2023/05/12 04:38:21;;;;;;;3.15;2.70;;;;;;;;;;5045161;28;20423;-71
2023/05/12 04:40:47;;;;;;;3.47;2.80;;;;;;;;;;5027276;28;20041;-71
2023/05/12 04:43:13;;;;;;;2.67;2.47;;;;;;;;;;5027597;28;20041;-71
2023/05/12 04:45:39;;;;;;;2.53;2.28;;;;;;;;;;5026431;28;20423;-71
2023/05/12 04:48:06;;;;;;;2.60;2.40;;;;;;;;;;5045003;28;20064;-72
2023/05/12 04:50:32;;;;;;;3.03;2.75;;;;;;;;;;5026316;28;20478;-71
2023/05/12 04:52:58;;;;;;;3.33;2.38;;;;;;;;;;5044223;28;20076;-71
2023/05/12 04:55:24;;;;;;;2.17;1.98;;;;;;;;;;5044967;28;20041;-71
2023/05/12 04:57:50;;;;;;;2.50;2.30;;;;;;;;;;5044553;28;20113;-71
2023/05/12 05:00:16;;;;;;;2.58;1.98;;;;;;;;;;5045067;28;20206;-71
2023/05/12 05:02:42;;;;;;;2.00;1.77;;;;;;;;;;5045150;28;20132;-71
2023/05/12 05:05:08;;;;;;;2.03;1.90;;;;;;;;;;5043198;28;20094;-71
2023/05/12 05:07:34;;;;;;;1.65;1.55;;;;;;;;;;5044869;28;20068;-71
2023/05/12 05:10:00;;;;;;;1.85;1.70;;;;;;;;;;5044458;28;20076;-71
2023/05/12 05:12:26;;;;;;;1.65;1.50;;;;;;;;;;5046787;28;20041;-71
2023/05/12 05:14:52;;;;;;;2.10;2.00;;;;;;;;;;5044667;28;20041;-71
2023/05/12 05:17:18;;;;;;;2.80;2.28;;;;;;;;;;5027416;28;20040;-71
2023/05/12 05:19:44;;;;;;;2.67;2.47;;;;;;;;;;5044394;28;20513;-71
2023/05/12 05:22:10;;;;;;;2.80;1.90;;;;;;;;;;5025873;28;20036;-71
2023/05/12 05:24:36;;;;;;;2.95;2.53;;;;;;;;;;5027384;28;20045;-71
2023/05/12 05:27:02;;;;;;;3.80;2.45;;;;;;;;;;5043551;28;20048;-71
2023/05/12 05:29:28;;;;;;;2.38;1.73;;;;;;;;;;5026169;28;20045;-71
2023/05/12 05:31:54;;;;;;;1.48;1.38;;;;;;;;;;5043994;28;20066;-71
2023/05/12 05:34:20;;;;;;;1.98;1.85;;;;;;;;;;5044007;28;20440;-71
2023/05/12 05:36:46;;;;;;;1.90;1.60;;;;;;;;;;5044393;28;20044;-71
2023/05/12 05:39:12;;;;;;;2.40;1.92;;;;;;;;;;5044545;28;20806;-71
2023/05/12 05:41:38;;;;;;;2.28;2.00;;;;;;;;;;5025271;28;20273;-71
2023/05/12 05:44:04;;;;;;;2.30;1.77;;;;;;;;;;5026094;28;20044;-71
2023/05/12 05:46:30;;;;;;;2.22;2.03;;;;;;;;;;5044044;28;20051;-71
2023/05/12 05:48:56;;;;;;;2.05;1.85;;;;;;;;;;5025942;28;20136;-71
2023/05/12 05:51:22;;;;;;;2.33;2.13;;;;;;;;;;5027961;28;20119;-71
2023/05/12 05:53:48;;;;;;;3.08;2.10;;;;;;;;;;5025992;28;20047;-71
2023/05/12 05:56:14;;;;;;;2.10;1.85;;;;;;;;;;5025095;28;20451;-71
2023/05/12 05:58:40;;;;;;;1.70;1.45;;;;;;;;;;5026225;28;20033;-71
2023/05/12 06:01:06;;;;;;;2.13;1.50;;;;;;;;;;5042076;28;20131;-71
2023/05/12 06:03:32;;;;;;;2.75;1.92;;;;;;;;;;5044080;28;20690;-71
2023/05/12 06:05:58;;;;;;;1.75;1.65;;;;;;;;;;5043167;28;20041;-71
2023/05/12 06:08:24;;;;;;;2.25;2.05;;;;;;;;;;5043170;28;20048;-71
2023/05/12 06:10:50;;;;;;;1.67;1.52;;;;;;;;;;5025760;28;20044;-71
2023/05/12 06:13:16;;;;;;;2.33;1.80;;;;;;;;;;5025895;28;20041;-71
2023/05/12 06:15:42;;;;;;;1.67;1.58;;;;;;;;;;5025438;28;20052;-71
2023/05/12 06:18:08;;;;;;;2.85;2.55;;;;;;;;;;5025230;28;20698;-71
2023/05/12 06:20:34;;;;;;;2.60;2.05;;;;;;;;;;5026760;28;20049;-71
2023/05/12 06:23:00;;;;;;;2.15;1.90;;;;;;;;;;5044128;28;20403;-71
2023/05/12 06:25:27;;;;;;;1.67;1.58;;;;;;;;;;5025097;28;20045;-71
2023/05/12 06:27:53;;;;;;;3.22;2.17;;;;;;;;;;5025266;28;20084;-71
2023/05/12 06:30:19;;;;;;;3.22;2.78;;;;;;;;;;5041228;28;20071;-71
2023/05/12 06:32:45;;;;;;;2.72;2.47;;;;;;;;;;5043388;28;20044;-71
2023/05/12 06:35:11;;;;;;;3.03;2.53;;;;;;;;;;5027984;28;20562;-71
2023/05/12 06:37:37;;;;;;;3.97;3.03;;;;;;;;;;5024767;28;20045;-71
2023/05/12 06:40:03;;;;;;;3.67;3.38;;;;;;;;;;5042890;28;20478;-71
2023/05/12 06:42:29;;;;;;;5.97;4.03;;;;;;;;;;5043185;28;20107;-71
2023/05/12 06:44:55;;;;;;;6.45;4.43;;;;;;;;;;5042403;28;20040;-71
2023/05/12 06:47:21;;;;;;;4.32;3.40;;;;;;;;;;5043455;28;20099;-71
2023/05/12 06:49:48;;;;;;;3.00;2.70;;;;;;;;;;5043120;28;20053;-71
2023/05/12 06:52:15;;;;;;;3.10;2.80;;;;;;;;;;5024921;28;20046;-71
2023/05/12 06:54:42;;;;;;;3.20;2.90;;;;;;;;;;5025341;28;20540;-71
2023/05/12 06:57:08;;;;;;;2.80;2.60;;;;;;;;;;5024937;28;20053;-71
2023/05/12 06:59:34;;;;;;;2.88;2.55;;;;;;;;;;5042497;28;20049;-71
2023/05/12 07:02:00;;;;;;;2.78;2.35;;;;;;;;;;5044150;28;20045;-71
2023/05/12 07:04:26;;;;;;;2.53;2.33;;;;;;;;;;5034053;28;20059;-71
2023/05/12 07:06:53;;;;;;;3.88;3.47;;;;;;;;;;5031439;28;20079;-71
2023/05/12 07:09:19;;;;;;;4.05;3.38;;;;;;;;;;5043842;28;20055;-71
2023/05/12 07:11:45;;;;;;;3.85;3.50;;;;;;;;;;5043396;28;20147;-71
2023/05/12 07:14:11;;;;;;;4.07;3.25;;;;;;;;;;5048040;28;20048;-71
2023/05/12 07:16:37;;;;;;;4.13;3.30;;;;;;;;;;5029554;28;20438;-71
2023/05/12 07:19:05;;;;;;;3.10;2.80;;;;;;;;;;5046170;28;20099;-71
2023/05/12 07:21:31;;;;;;;3.60;3.30;;;;;;;;;;5029600;28;20057;-71
2023/05/12 07:23:58;;;;;;;3.22;2.92;;;;;;;;;;5047144;28;20256;-71
2023/05/12 07:26:24;;;;;;;4.82;4.18;;;;;;;;;;5046709;28;20053;-71
2023/05/12 07:28:50;;;;;;;4.13;3.58;;;;;;;;;;5047738;28;20044;-71
2023/05/12 07:31:16;;;;;;;4.32;3.92;;;;;;;;;;5028646;28;20066;-71
2023/05/12 07:33:42;;;;;;;4.38;4.05;;;;;;;;;;5022591;28;20080;-71
2023/05/12 07:36:08;;;;;;;5.18;4.25;;;;;;;;;;5046703;28;20077;-71
2023/05/12 07:38:34;;;;;;;4.60;3.70;;;;;;;;;;5029619;28;20053;-70
2023/05/12 07:41:00;;;;;;;4.20;3.75;;;;;;;;;;5029231;28;20144;-71
2023/05/12 07:43:26;;;;;;;4.20;3.80;;;;;;;;;;5047682;28;20562;-71
2023/05/12 07:45:54;;;;;;;5.72;4.55;;;;;;;;;;5047825;28;20049;-70
2023/05/12 07:48:21;;;;;;;4.43;4.03;;;;;;;;;;5025802;28;20084;-71
2023/05/12 07:50:47;;;;;;;4.03;3.65;;;;;;;;;;5026544;28;20408;-71
2023/05/12 07:53:13;;;;;;;4.30;3.90;;;;;;;;;;5027654;28;20045;-71
2023/05/12 07:55:40;;;;;;;4.30;3.90;;;;;;;;;;5027538;28;20462;-71
2023/05/12 07:58:06;;;;;;;6.80;6.10;;;;;;;;;;5027708;28;20050;-71
2023/05/12 08:00:32;;;;;;;7.32;6.65;;;;;;;;;;5025955;28;20098;-71
2023/05/12 08:02:58;;;;;;;6.38;5.88;;;;;;;;;;5026343;28;20107;-70
2023/05/12 08:05:24;;;;;;;6.75;5.85;;;;;;;;;;5025827;28;20167;-73
2023/05/12 08:07:51;;;;;;;5.78;4.93;;;;;;;;;;5025496;28;20540;-72
2023/05/12 08:10:18;;;;;;;7.10;6.50;;;;;;;;;;5026519;28;20053;-68
2023/05/12 08:12:44;;;;;;;9.25;7.72;;;;;;;;;;5027239;28;20056;-70
2023/05/12 08:15:10;;;;;;;10.52;9.43;;;;;;;;;;5025528;28;20493;-71
2023/05/12 08:17:36;;;;;;;7.75;7.00;;;;;;;;;;5027176;28;20152;-71
2023/05/12 08:20:05;;;;;;;8.05;7.25;;;;;;;;;;5025208;28;20056;-72
2023/05/12 08:22:31;;;;;;;8.23;7.43;;;;;;;;;;5024970;28;20049;-75
2023/05/12 08:24:57;;;;;;;9.05;8.10;;;;;;;;;;5023381;28;20056;-75
2023/05/12 08:27:23;;;;;;;10.45;9.35;;;;;;;;;;5026776;28;20102;-73
2023/05/12 08:29:49;;;;;;;9.98;8.98;;;;;;;;;;5025131;28;20393;-73
2023/05/12 08:32:15;;;;;;;10.93;9.20;;;;;;;;;;5027191;28;20049;-74
2023/05/12 08:34:41;;;;;;;10.65;9.55;;;;;;;;;;5026926;28;20049;-72
2023/05/12 08:37:07;;;;;;;9.75;8.10;;;;;;;;;;5024913;28;20059;-72
2023/05/12 08:39:33;;;;;;;8.05;7.25;;;;;;;;;;5026592;28;20040;-76
2023/05/12 08:42:18;;;;;;;7.65;6.90;;;;;;;;;;5024202;28;20053;-74
2023/05/12 08:44:44;;;;;;;8.02;6.95;;;;;;;;;;5005254;28;20056;-74
2023/05/12 08:47:12;;;;;;;7.20;6.55;;;;;;;;;;5012962;28;20053;-75
2023/05/12 08:49:39;;;;;;;7.63;6.82;;;;;;;;;;5030475;28;20517;-73
2023/05/12 08:52:05;;;;;;;6.85;6.13;;;;;;;;;;5024192;28;20092;-73
2023/05/12 08:54:32;;;;;;;6.30;5.70;;;;;;;;;;5025677;28;20052;-73
2023/05/12 08:56:58;;;;;;;8.52;7.63;;;;;;;;;;5024104;28;20060;-73
2023/05/12 08:59:25;;;;;;;7.03;6.43;;;;;;;;;;5025762;28;20131;-73
2023/05/12 09:01:51;;;;;;;6.95;6.35;;;;;;;;;;5023479;28;20551;-73
2023/05/12 09:04:17;;;;;;;6.55;5.68;;;;;;;;;;5024262;28;20106;-75
2023/05/12 09:06:44;;;;;;;6.47;5.88;;;;;;;;;;5026106;28;20053;-75
2023/05/12 09:09:13;;;;;;;8.45;7.65;;;;;;;;;;5039815;28;20053;-75
2023/05/12 09:11:39;;;;;;;8.35;7.00;;;;;;;;;;5024607;28;20060;-75
2023/05/12 09:14:06;;;;;;;8.82;8.02;;;;;;;;;;5025311;28;20087;-75
2023/05/12 09:16:42;;;;;;;10.98;8.55;;;;;;;;;;5025740;28;20057;-75
2023/05/12 09:19:08;;;;;;;6.95;6.35;;;;;;;;;;5024137;28;20766;-75
2023/05/12 09:21:34;;;;;;;7.22;6.63;;;;;;;;;;5024616;28;20119;-75
2023/05/12 09:24:05;;;;;;;8.48;7.60;;;;;;;;;;5024236;28;20037;-75
2023/05/12 09:26:32;;;;;;;7.78;7.07;;;;;;;;;;5025107;28;20952;-74
2023/05/12 09:29:05;;;;;;;5.90;5.45;;;;;;;;;;5030221;28;20045;-77
2023/05/12 09:31:31;;;;;;;4.93;4.53;;;;;;;;;;5028519;28;20045;-75
2023/05/12 09:33:57;;;;;;;4.85;4.55;;;;;;;;;;5024885;28;20048;-75
2023/05/12 09:36:24;;;;;;;5.03;4.63;;;;;;;;;;5023919;28;20064;-75
2023/05/12 09:39:03;;;;;;;6.28;5.75;;;;;;;;;;5025576;28;20132;-75
2023/05/12 09:41:29;;;;;;;7.20;5.57;;;;;;;;;;5024696;28;20053;-75
2023/05/12 09:43:55;;;;;;;6.18;5.68;;;;;;;;;;5024359;28;20821;-73
2023/05/12 09:46:21;;;;;;;7.40;6.45;;;;;;;;;;5029147;28;20049;-74
2023/05/12 09:48:47;;;;;;;4.55;4.15;;;;;;;;;;5036535;28;20053;-75
2023/05/12 09:51:19;;;;;;;4.50;4.20;;;;;;;;;;5052987;28;20059;-75
2023/05/12 09:53:45;;;;;;;4.63;4.22;;;;;;;;;;5030048;28;20044;-75
2023/05/12 09:56:16;;;;;;;3.97;3.67;;;;;;;;;;5054312;28;20048;-78
2023/05/12 09:58:45;;;;;;;5.22;4.90;;;;;;;;;;5044520;28;20143;-75
2023/05/12 10:01:12;;;;;;;5.32;4.82;;;;;;;;;;5044108;28;20045;-74
2023/05/12 10:03:39;;;;;;;4.18;3.80;;;;;;;;;;5045135;28;20045;-74
2023/05/12 10:06:05;;;;;;;5.55;4.88;;;;;;;;;;5026381;28;20072;-74
2023/05/12 10:08:36;;;;;;;4.28;3.88;;;;;;;;;;5044505;28;20045;-72
2023/05/12 10:11:02;;;;;;;4.10;3.80;;;;;;;;;;5044827;28;20055;-72
2023/05/12 10:13:29;;;;;;;4.45;4.15;;;;;;;;;;5044878;28;20037;-77
2023/05/12 10:15:57;;;;;;;4.00;3.70;;;;;;;;;;5025744;28;20045;-75
2023/05/12 10:18:23;;;;;;;3.60;3.30;;;;;;;;;;5026955;28;20049;-74
2023/05/12 10:20:50;;;;;;;5.10;4.70;;;;;;;;;;5044684;28;20139;-74
2023/05/12 10:23:17;;;;;;;4.75;4.35;;;;;;;;;;5044074;28;20044;-74
2023/05/12 10:25:43;;;;;;;4.13;3.83;;;;;;;;;;5024940;28;20060;-73
2023/05/12 10:28:10;;;;;;;4.65;4.28;;;;;;;;;;5042768;28;20511;-73
2023/05/12 10:30:40;;;;;;;4.05;3.75;;;;;;;;;;5024386;28;20048;-73
2023/05/12 10:33:07;;;;;;;5.38;4.97;;;;;;;;;;5025113;28;20061;-73
2023/05/12 10:35:39;;;;;;;4.95;4.57;;;;;;;;;;5024671;28;20455;-73
2023/05/12 10:38:06;;;;;;;4.73;4.33;;;;;;;;;;5042953;28;20558;-74
2023/05/12 10:40:32;;;;;;;5.88;5.22;;;;;;;;;;5026859;28;20295;-73
2023/05/12 10:43:00;;;;;;;6.82;6.22;;;;;;;;;;5043730;28;20455;-74
2023/05/12 10:45:26;;;;;;;6.00;5.60;;;;;;;;;;5026781;28;20491;-74
2023/05/12 10:47:52;;;;;;;5.32;4.93;;;;;;;;;;5046306;28;20525;-73
2023/05/12 10:50:28;;;;;;;7.28;6.68;;;;;;;;;;5048668;28;20286;-74
2023/05/12 10:52:55;;;;;;;6.50;5.90;;;;;;;;;;5048632;28;20092;-73
2023/05/12 10:55:35;;;;;;;6.93;6.38;;;;;;;;;;5049023;28;20044;-76
2023/05/12 10:58:05;;;;;;;6.40;5.90;;;;;;;;;;5029996;28;20082;-74
2023/05/12 11:00:42;;;;;;;4.90;4.55;;;;;;;;;;5030584;28;20045;-73
2023/05/12 11:03:11;;;;;;;5.63;5.22;;;;;;;;;;5030371;28;20048;-73
2023/05/12 11:05:37;;;;;;;5.85;5.35;;;;;;;;;;5047686;28;20048;-74
2023/05/12 11:08:03;;;;;;;6.13;5.53;;;;;;;;;;5048154;28;20052;-73
2023/05/12 11:10:29;;;;;;;7.10;5.53;;;;;;;;;;5030744;28;20118;-73
2023/05/12 11:12:56;;;;;;;5.95;5.28;;;;;;;;;;5029447;28;20048;-73
2023/05/12 11:15:22;;;;;;;6.47;4.93;;;;;;;;;;5048310;28;20518;-73
2023/05/12 11:17:48;;;;;;;6.72;6.13;;;;;;;;;;5048226;28;20045;-73
2023/05/12 11:20:24;;;;;;;5.55;5.15;;;;;;;;;;5048173;28;20041;-73
2023/05/12 11:22:50;;;;;;;6.47;5.78;;;;;;;;;;5030326;28;20111;-73
2023/05/12 11:25:16;;;;;;;5.70;5.20;;;;;;;;;;5029672;28;20346;-73
2023/05/12 11:27:47;;;;;;;5.22;4.72;;;;;;;;;;5048168;28;20049;-73
2023/05/12 11:30:13;;;;;;;5.50;5.10;;;;;;;;;;5048151;28;20439;-73
2023/05/12 11:32:39;;;;;;;4.03;3.72;;;;;;;;;;5015820;28;20053;-72
2023/05/12 11:35:13;;;;;;;3.95;3.65;;;;;;;;;;5010096;28;20474;-75
2023/05/12 11:37:39;;;;;;;5.07;4.63;;;;;;;;;;5027249;28;20135;-74
2023/05/12 11:40:15;;;;;;;4.68;4.28;;;;;;;;;;5038299;28;20054;-75
2023/05/12 11:42:46;;;;;;;5.70;5.25;;;;;;;;;;5022672;28;20053;-75
2023/05/12 11:45:22;;;;;;;4.47;4.18;;;;;;;;;;5012909;28;20064;-74
2023/05/12 11:47:48;;;;;;;3.67;3.40;;;;;;;;;;5030579;28;20728;-73
2023/05/12 11:50:21;;;;;;;4.68;4.28;;;;;;;;;;5029766;28;20403;-74
2023/05/12 11:52:47;;;;;;;3.60;3.40;;;;;;;;;;5042717;28;20051;-74
2023/05/12 11:55:19;;;;;;;4.53;4.20;;;;;;;;;;5018838;28;20045;-74
2023/05/12 11:57:54;;;;;;;4.15;3.85;;;;;;;;;;5039452;28;20045;-73
2023/05/12 12:00:26;;;;;;;3.88;3.65;;;;;;;;;;5044166;28;20041;-73
2023/05/12 12:02:52;;;;;;;4.13;3.40;;;;;;;;;;5027708;28;20049;-73
2023/05/12 12:05:20;;;;;;;3.63;3.42;;;;;;;;;;5045683;28;20049;-74
2023/05/12 12:07:46;;;;;;;4.05;3.38;;;;;;;;;;5017773;28;20045;-74
2023/05/12 12:10:12;;;;;;;3.13;2.92;;;;;;;;;;5045752;28;20044;-74
2023/05/12 12:12:39;;;;;;;3.97;3.67;;;;;;;;;;5027094;28;20045;-74
2023/05/12 12:15:06;;;;;;;2.88;2.67;;;;;;;;;;5043984;28;20045;-74
2023/05/12 12:17:32;;;;;;;3.45;3.25;;;;;;;;;;5042482;28;20130;-74
2023/05/12 12:19:58;;;;;;;3.97;3.67;;;;;;;;;;5027468;28;20033;-73
2023/05/12 12:22:24;;;;;;;4.78;4.30;;;;;;;;;;5024646;28;20138;-74
2023/05/12 12:24:50;;;;;;;3.60;3.30;;;;;;;;;;5039679;28;20055;-74
2023/05/12 12:27:16;;;;;;;3.92;3.20;;;;;;;;;;5045783;28;20739;-74
2023/05/12 12:29:42;;;;;;;2.88;2.67;;;;;;;;;;5020601;28;20422;-74
2023/05/12 12:32:08;;;;;;;2.83;2.63;;;;;;;;;;5044610;28;20053;-74
2023/05/12 12:34:34;;;;;;;3.00;2.80;;;;;;;;;;5045212;28;20049;-74
2023/05/12 12:37:00;;;;;;;3.08;2.88;;;;;;;;;;5044362;28;20052;-76
2023/05/12 12:39:26;;;;;;;2.53;2.33;;;;;;;;;;5041388;28;20567;-75
2023/05/12 12:41:53;;;;;;;3.33;3.13;;;;;;;;;;5043378;28;20041;-77
2023/05/12 12:44:19;;;;;;;2.30;2.20;;;;;;;;;;5023233;28;20455;-77
2023/05/12 12:46:45;;;;;;;3.70;3.45;;;;;;;;;;5023583;28;20056;-75
2023/05/12 12:49:11;;;;;;;2.95;2.75;;;;;;;;;;5043465;28;20306;-74
2023/05/12 12:51:37;;;;;;;2.75;2.55;;;;;;;;;;5011684;28;20140;-74
2023/05/12 12:54:03;;;;;;;3.10;2.90;;;;;;;;;;5041766;28;20099;-75
2023/05/12 12:56:29;;;;;;;3.25;3.03;;;;;;;;;;5023253;28;20056;-74
2023/05/12 12:58:55;;;;;;;2.30;2.10;;;;;;;;;;5026084;28;20047;-74
2023/05/12 13:01:21;;;;;;;2.72;2.53;;;;;;;;;;5018154;28;20652;-74
2023/05/12 13:03:47;;;;;;;4.20;3.80;;;;;;;;;;5030547;28;20099;-73
2023/05/12 13:06:13;;;;;;;4.00;3.63;;;;;;;;;;5045201;28;20048;-73
2023/05/12 13:08:41;;;;;;;4.60;3.92;;;;;;;;;;5014107;28;20396;-74
2023/05/12 13:11:07;;;;;;;4.57;4.22;;;;;;;;;;5033271;28;20728;-73
2023/05/12 13:13:33;;;;;;;4.85;4.50;;;;;;;;;;5021882;28;20049;-68
2023/05/12 13:15:59;;;;;;;5.30;4.85;;;;;;;;;;5039869;28;20045;-68
2023/05/12 13:18:26;;;;;;;4.72;4.28;;;;;;;;;;5022530;28;20111;-74
2023/05/12 13:20:53;;;;;;;4.38;4.07;;;;;;;;;;5038656;28;20049;-74
2023/05/12 13:23:19;;;;;;;4.30;4.00;;;;;;;;;;5046244;28;20052;-74
2023/05/12 13:25:45;;;;;;;4.07;3.78;;;;;;;;;;5025936;28;20052;-74
2023/05/12 13:28:11;;;;;;;4.75;3.92;;;;;;;;;;5045821;28;20103;-74
2023/05/12 13:30:37;;;;;;;5.25;4.85;;;;;;;;;;5045478;28;20049;-74
2023/05/12 13:33:03;;;;;;;4.45;4.15;;;;;;;;;;5044889;28;20095;-74
2023/05/12 13:35:29;;;;;;;5.07;4.68;;;;;;;;;;5026212;28;20053;-74
2023/05/12 13:37:56;;;;;;;4.10;3.80;;;;;;;;;;5043670;28;20637;-74
2023/05/12 13:40:22;;;;;;;4.07;3.78;;;;;;;;;;5043419;28;20613;-74
2023/05/12 13:42:48;;;;;;;5.40;4.90;;;;;;;;;;5044385;28;20102;-74
2023/05/12 13:45:14;;;;;;;5.07;4.68;;;;;;;;;;5026107;28;20052;-74
2023/05/12 13:47:40;;;;;;;4.50;4.13;;;;;;;;;;5024884;28;20665;-74
2023/05/12 13:50:07;;;;;;;4.78;4.22;;;;;;;;;;5026540;28;20676;-74
2023/05/12 13:52:33;;;;;;;6.80;4.35;;;;;;;;;;5026663;28;20048;-74
2023/05/12 13:54:59;;;;;;;4.18;3.88;;;;;;;;;;5044862;28;20459;-74
2023/05/12 13:57:25;;;;;;;3.58;3.28;;;;;;;;;;5045054;28;20480;-73
2023/05/12 13:59:53;;;;;;;2.75;2.55;;;;;;;;;;5044657;28;20052;-74
2023/05/12 14:02:19;;;;;;;3.58;3.28;;;;;;;;;;5045905;28;20049;-74
2023/05/12 14:04:45;;;;;;;2.85;2.65;;;;;;;;;;5027066;28;20060;-74
2023/05/12 14:07:11;;;;;;;3.10;2.90;;;;;;;;;;5026468;28;20064;-74
2023/05/12 14:09:37;;;;;;;2.90;2.70;;;;;;;;;;5027536;28;20148;-74
2023/05/12 14:12:04;;;;;;;2.92;2.72;;;;;;;;;;5044550;28;20174;-74
2023/05/12 14:14:30;;;;;;;2.63;2.42;;;;;;;;;;5026460;28;20131;-74
2023/05/12 14:16:56;;;;;;;2.17;2.03;;;;;;;;;;5044486;28;20041;-74
2023/05/12 14:19:22;;;;;;;2.88;2.67;;;;;;;;;;5027353;28;20048;-74
2023/05/12 14:21:48;;;;;;;1.98;1.88;;;;;;;;;;5025731;28;20052;-74
2023/05/12 14:24:14;;;;;;;2.15;1.95;;;;;;;;;;5027063;28;20056;-74
2023/05/12 14:26:40;;;;;;;2.03;1.92;;;;;;;;;;5044541;28;20093;-74
2023/05/12 14:29:06;;;;;;;2.30;2.10;;;;;;;;;;5025819;28;20145;-74
2023/05/12 14:31:33;;;;;;;2.20;2.00;;;;;;;;;;5044693;28;20133;-74
2023/05/12 14:33:59;;;;;;;1.73;1.63;;;;;;;;;;5026543;28;20129;-74
2023/05/12 14:36:25;;;;;;;2.95;1.92;;;;;;;;;;5025997;28;20077;-74
2023/05/12 14:38:51;;;;;;;1.95;1.80;;;;;;;;;;5044785;28;20701;-74